Aérodrome :
LOGIN :

S'inscrire | Disclaimer

   EN    FR    IT 

 










Légende :    VFR   VFR Marginal   IFR   IFR Intensif   IFR Très Intensif
Visi : 
Plafond : 
>= 8 km
>= 3000ft
5 à 8 km
1000 à 3000 ft
1500m à 5 km
500 à 1000 ft
800 à 1500m
200 à 500 ft
< 800m
< 200 ft
Symboles :   Orages  Brouillard  Fortes neiges  Fortes précipitations  Vent > 20 kt
SIGMETs :   Divers  Orages  Givrage  Turbulence  Onde Orograph.  Cendres Volcan.







- Altitude de l'aérodrome : 1046 ft
- Code IATA : NUE


EDDN - Nuremberg

DERNIER METAR :
  • 271320Z 08005KT 010V180 CAVOK 26/10 Q1020 NOSIG

METARs EXPIRÉS :
  • 271250Z VRB06KT CAVOK 26/11 Q1020 NOSIG
  • 271220Z VRB04G14KT CAVOK 26/11 Q1021 NOSIG
  • 271150Z VRB05KT CAVOK 26/10 Q1021 NOSIG
  • 271120Z 13007KT 080V180 CAVOK 25/11 Q1021 NOSIG
  • 271050Z VRB05KT CAVOK 25/11 Q1021 NOSIG

TAF TAF EDDN
Valide du 27 à 12h jusqu'au 28 à 12h UTC


271100Z 2712/2812 11005KT CAVOK
Pas de NOTAMs connus pour ce terrain.



MET'MAP, la Météo Aéronautique d'un coup d'oeil ! - Copyright ORBIFLY Décembre 2007 - Disclaimer

ORBIFLY MET'MAP TEAM :

Programmation & Développement : Alexandra Zaïnal
Conception & Développement : Baudouin d'Aumeries
Co-Programmation & Développement : Marc-Olivier Méhu
Soutien technique & logistique : Manuel Goepfert

Contact : metmap@orbifly.com




SOURCES & CREDITS :

   NOAA